createdAt,value
2022-12-28T00:00:42.191Z,-0.30
2022-12-28T00:04:44.368Z,-0.40
2022-12-28T00:08:46.171Z,-0.40
2022-12-28T00:12:47.912Z,-0.30
2022-12-28T00:16:49.742Z,-0.30
2022-12-28T00:21:01.616Z,-0.20
2022-12-28T00:25:03.793Z,-0.30
2022-12-28T00:29:05.994Z,-0.30
2022-12-28T00:33:07.759Z,-0.40
2022-12-28T00:37:13.241Z,-0.30
2022-12-28T00:41:15.218Z,-0.40
2022-12-28T00:45:18.070Z,-0.60
2022-12-28T00:49:19.826Z,-0.50
2022-12-28T00:53:21.654Z,-0.40
2022-12-28T00:57:23.421Z,-0.30
2022-12-28T01:01:27.095Z,-0.30
2022-12-28T01:05:28.949Z,-0.40
2022-12-28T01:09:30.733Z,-0.40
2022-12-28T01:13:32.533Z,-0.30
2022-12-28T01:17:34.265Z,-0.40
2022-12-28T01:21:37.062Z,-0.40
2022-12-28T01:25:38.947Z,-0.40
2022-12-28T01:29:40.725Z,-0.30
2022-12-28T01:33:42.812Z,-0.40
2022-12-28T01:37:44.602Z,-0.30
2022-12-28T01:41:46.618Z,-0.30
2022-12-28T01:45:52.839Z,-0.40
2022-12-28T01:50:01.364Z,-0.30
2022-12-28T01:54:04.528Z,-0.20
2022-12-28T01:58:13.913Z,-0.30
2022-12-28T02:02:16.431Z,-0.30
2022-12-28T02:06:18.460Z,-0.40
2022-12-28T02:10:40.735Z,-0.30
2022-12-28T02:14:45.115Z,-0.10
2022-12-28T02:18:48.279Z,0.00
2022-12-28T02:22:59.463Z,0.00
2022-12-28T02:27:21.423Z,0.00
2022-12-28T02:31:50.440Z,-0.10
2022-12-28T02:35:59.824Z,-0.30
2022-12-28T02:40:25.041Z,-0.20
2022-12-28T02:44:45.481Z,-0.30
2022-12-28T02:49:06.231Z,-0.20
2022-12-28T02:53:24.712Z,-0.10
2022-12-28T02:57:48.102Z,0.00
2022-12-28T03:02:17.310Z,0.00
2022-12-28T03:06:57.915Z,0.10
2022-12-28T03:11:11.833Z,0.00
2022-12-28T03:15:37.994Z,-0.10
2022-12-28T03:20:05.784Z,-0.10
2022-12-28T03:24:28.712Z,0.00
2022-12-28T03:28:51.361Z,0.10
2022-12-28T03:32:55.296Z,0.20
2022-12-28T03:37:17.320Z,0.30
2022-12-28T03:41:28.383Z,0.20
2022-12-28T03:45:45.469Z,0.30
2022-12-28T03:49:48.842Z,0.40
2022-12-28T03:53:50.985Z,0.30
2022-12-28T03:57:56.851Z,0.40
2022-12-28T04:02:02.873Z,0.50
2022-12-28T04:06:07.788Z,0.50
2022-12-28T04:10:10.575Z,0.60
2022-12-28T04:14:12.394Z,0.40
2022-12-28T04:18:17.788Z,0.60
2022-12-28T04:22:19.555Z,0.50
2022-12-28T04:26:21.373Z,0.60
2022-12-28T04:30:26.121Z,0.60
2022-12-28T04:34:27.990Z,0.60
2022-12-28T04:38:43.138Z,0.70
2022-12-28T04:42:44.934Z,0.80
2022-12-28T04:46:46.830Z,0.70
2022-12-28T04:50:48.659Z,0.80
2022-12-28T04:54:50.797Z,0.80
2022-12-28T04:58:57.805Z,0.90
2022-12-28T05:03:00.310Z,0.80
2022-12-28T05:07:02.250Z,0.80
2022-12-28T05:11:06.355Z,0.80
2022-12-28T05:15:08.483Z,0.50
2022-12-28T05:19:10.263Z,0.60
2022-12-28T05:23:12.123Z,0.80
2022-12-28T05:27:13.880Z,0.90
2022-12-28T05:31:19.257Z,0.90
2022-12-28T05:35:21.066Z,1.10
2022-12-28T05:39:22.809Z,1.10
2022-12-28T05:43:24.629Z,1.10
2022-12-28T05:47:26.506Z,1.20
2022-12-28T05:51:30.890Z,1.20
2022-12-28T05:55:32.706Z,1.30
2022-12-28T05:59:34.721Z,1.40
2022-12-28T06:03:38.153Z,1.40
2022-12-28T06:07:40.250Z,1.50
2022-12-28T06:11:42.431Z,1.50
2022-12-28T06:15:44.297Z,1.40
2022-12-28T06:19:46.003Z,1.30
2022-12-28T06:23:48.253Z,1.30
2022-12-28T06:27:49.966Z,1.30
2022-12-28T06:31:53.861Z,1.40
2022-12-28T06:35:55.779Z,1.40
2022-12-28T06:39:57.513Z,1.40
2022-12-28T06:43:59.529Z,1.50
2022-12-28T06:48:01.369Z,1.50
2022-12-28T06:52:03.303Z,1.60
2022-12-28T06:56:14.683Z,1.50
2022-12-28T07:00:16.871Z,1.60
2022-12-28T07:04:18.675Z,1.60
2022-12-28T07:08:20.439Z,1.60
2022-12-28T07:12:22.436Z,1.60
2022-12-28T07:16:25.824Z,1.70
2022-12-28T07:20:27.720Z,1.70
2022-12-28T07:24:29.699Z,1.60
2022-12-28T07:28:31.431Z,1.60
2022-12-28T07:32:36.917Z,1.70
2022-12-28T07:36:38.845Z,1.90
2022-12-28T07:40:40.619Z,2.00
2022-12-28T07:44:48.674Z,2.10
2022-12-28T07:48:51.540Z,2.10
2022-12-28T07:52:53.251Z,2.20
2022-12-28T07:56:55.041Z,2.30
2022-12-28T08:01:18.377Z,2.30
2022-12-28T08:05:20.180Z,2.30
2022-12-28T08:09:21.972Z,2.30
2022-12-28T08:13:23.738Z,2.40
2022-12-28T08:17:25.736Z,2.50
2022-12-28T08:21:30.938Z,2.50
2022-12-28T08:25:34.703Z,2.50
2022-12-28T08:29:36.557Z,2.60
2022-12-28T08:33:39.101Z,2.80
2022-12-28T08:37:40.852Z,2.80
2022-12-28T08:41:42.695Z,2.80
2022-12-28T08:45:44.431Z,2.70
2022-12-28T08:49:46.271Z,2.70
2022-12-28T08:53:48.589Z,2.70
2022-12-28T08:57:50.348Z,2.90
2022-12-28T09:01:52.213Z,2.90
2022-12-28T09:05:54.707Z,2.90
2022-12-28T09:09:56.675Z,3.00
2022-12-28T09:13:58.443Z,3.10
2022-12-28T09:18:00.285Z,2.90
2022-12-28T09:22:02.040Z,3.20
2022-12-28T09:26:12.035Z,3.50
2022-12-28T09:30:14.701Z,3.60
2022-12-28T09:34:35.461Z,3.50
2022-12-28T09:38:38.427Z,3.40
2022-12-28T09:42:42.449Z,2.70
2022-12-28T09:46:50.134Z,2.70
2022-12-28T09:50:52.251Z,2.90
2022-12-28T09:54:55.009Z,3.00
2022-12-28T09:58:57.119Z,2.80
2022-12-28T10:03:18.346Z,3.10
2022-12-28T10:07:20.391Z,3.10
2022-12-28T10:11:47.797Z,3.40
2022-12-28T10:15:50.673Z,3.30
2022-12-28T10:19:54.684Z,3.70
2022-12-28T10:24:29.750Z,3.80
2022-12-28T10:28:22.350Z,3.70
2022-12-28T10:32:24.085Z,3.60
2022-12-28T10:36:31.579Z,3.60
2022-12-28T10:40:37.492Z,3.10
2022-12-28T10:44:40.835Z,3.40
2022-12-28T10:48:56.572Z,3.60
2022-12-28T10:52:58.760Z,3.20
2022-12-28T10:57:01.142Z,3.40
2022-12-28T11:01:15.218Z,3.30
2022-12-28T11:05:23.797Z,3.50
2022-12-28T11:09:30.824Z,3.60
2022-12-28T11:13:33.517Z,3.80
2022-12-28T11:17:37.817Z,4.20
2022-12-28T11:21:41.637Z,4.40
2022-12-28T11:25:43.592Z,4.00
2022-12-28T11:29:48.854Z,4.00
2022-12-28T11:33:56.489Z,4.00
2022-12-28T11:38:00.913Z,3.90
2022-12-28T11:42:37.180Z,3.90
2022-12-28T11:46:24.498Z,4.00
2022-12-28T11:50:38.482Z,4.20
2022-12-28T11:54:55.796Z,4.30
2022-12-28T11:59:04.202Z,4.40
2022-12-28T12:03:06.001Z,4.70
2022-12-28T12:07:20.100Z,4.50
2022-12-28T12:11:31.738Z,4.70
2022-12-28T12:15:41.436Z,4.20
2022-12-28T12:19:49.022Z,4.40
2022-12-28T12:23:55.744Z,4.50
2022-12-28T12:28:03.047Z,4.70
2022-12-28T12:32:16.989Z,5.30
2022-12-28T12:36:40.704Z,5.30
2022-12-28T12:41:19.465Z,5.40
2022-12-28T12:45:50.405Z,4.90
2022-12-28T12:50:35.098Z,4.90
2022-12-28T12:54:52.387Z,4.70
2022-12-28T12:59:21.727Z,4.80
2022-12-28T13:03:43.258Z,4.90
2022-12-28T13:07:45.574Z,5.40
2022-12-28T13:11:48.269Z,5.10
2022-12-28T13:15:50.121Z,5.20
2022-12-28T13:20:06.893Z,5.70
2022-12-28T13:24:45.798Z,5.50
2022-12-28T13:28:52.386Z,5.60
2022-12-28T13:32:57.834Z,6.10
2022-12-28T13:37:02.437Z,5.80
2022-12-28T13:41:06.951Z,5.40
2022-12-28T13:45:15.279Z,5.30
2022-12-28T13:49:19.611Z,5.40
2022-12-28T13:53:25.399Z,5.30
2022-12-28T13:57:46.657Z,5.20
2022-12-28T14:01:51.162Z,5.10
2022-12-28T14:06:01.937Z,5.40
2022-12-28T14:10:04.719Z,5.30
2022-12-28T14:14:07.124Z,5.20
2022-12-28T14:18:14.257Z,5.30
2022-12-28T14:22:33.781Z,5.50
2022-12-28T14:26:38.705Z,5.50
2022-12-28T14:30:42.149Z,5.60
2022-12-28T14:34:44.049Z,5.70
2022-12-28T14:38:48.526Z,5.80
2022-12-28T14:42:52.282Z,5.70
2022-12-28T14:46:54.902Z,5.50
2022-12-28T14:51:05.789Z,5.00
2022-12-28T14:55:32.106Z,5.10
2022-12-28T14:59:37.946Z,4.60
2022-12-28T15:03:55.953Z,4.70
2022-12-28T15:07:57.732Z,5.00
2022-12-28T15:12:11.577Z,5.30
2022-12-28T15:16:14.176Z,5.40
2022-12-28T15:20:17.583Z,5.60
2022-12-28T15:24:23.110Z,5.80
2022-12-28T15:28:26.263Z,5.80
2022-12-28T15:32:28.680Z,5.70
2022-12-28T15:36:30.469Z,5.60
2022-12-28T15:40:32.467Z,5.60
2022-12-28T15:44:34.334Z,5.50
2022-12-28T15:48:38.621Z,5.30
2022-12-28T15:52:42.089Z,5.20
2022-12-28T15:56:43.858Z,5.30
2022-12-28T16:00:47.651Z,5.30
2022-12-28T16:04:50.041Z,5.10
2022-12-28T16:08:56.367Z,5.00
2022-12-28T16:12:58.151Z,4.60
2022-12-28T16:17:00.117Z,4.80
2022-12-28T16:21:03.219Z,4.90
2022-12-28T16:25:05.448Z,4.90
2022-12-28T16:29:07.242Z,5.00
2022-12-28T16:33:09.054Z,5.00
2022-12-28T16:37:10.865Z,4.90
2022-12-28T16:41:12.747Z,4.80
2022-12-28T16:45:15.014Z,4.80
2022-12-28T16:49:17.410Z,4.70
2022-12-28T16:53:24.422Z,4.50
2022-12-28T16:57:26.606Z,4.40
2022-12-28T17:01:28.573Z,4.30
2022-12-28T17:05:35.550Z,4.10
2022-12-28T17:09:37.496Z,4.00
2022-12-28T17:13:39.539Z,3.90
2022-12-28T17:17:41.280Z,3.80
2022-12-28T17:21:43.040Z,3.80
2022-12-28T17:25:50.669Z,3.60
2022-12-28T17:29:52.517Z,3.70
2022-12-28T17:33:57.905Z,3.60
2022-12-28T17:37:59.748Z,3.60
2022-12-28T17:42:01.484Z,3.60
2022-12-28T17:46:03.822Z,3.60
2022-12-28T17:50:06.657Z,3.50
2022-12-28T17:54:10.796Z,3.60
2022-12-28T17:58:12.759Z,3.60
2022-12-28T18:02:14.772Z,3.50
2022-12-28T18:06:16.718Z,3.50
2022-12-28T18:10:18.549Z,3.50
2022-12-28T18:14:20.345Z,3.30
2022-12-28T18:18:22.538Z,3.20
2022-12-28T18:22:24.371Z,3.30
2022-12-28T18:26:27.240Z,3.00
2022-12-28T18:30:29.089Z,3.00
2022-12-28T18:34:30.890Z,3.00
2022-12-28T18:38:33.175Z,2.90
2022-12-28T18:42:35.200Z,2.80
2022-12-28T18:46:37.231Z,2.80
2022-12-28T18:50:39.023Z,2.90
2022-12-28T18:54:40.973Z,3.00
2022-12-28T18:58:43.315Z,2.90
2022-12-28T19:02:45.229Z,3.10
2022-12-28T19:06:47.302Z,2.80
2022-12-28T19:10:50.045Z,2.80
2022-12-28T19:14:51.803Z,2.70
2022-12-28T19:18:53.591Z,2.80
2022-12-28T19:22:55.343Z,2.80
2022-12-28T19:26:57.162Z,2.90
2022-12-28T19:31:04.609Z,2.70
2022-12-28T19:35:07.250Z,2.60
2022-12-28T19:39:09.115Z,2.60
2022-12-28T19:43:10.929Z,2.70
2022-12-28T19:47:12.828Z,2.60
2022-12-28T19:51:15.120Z,2.60
2022-12-28T19:55:16.946Z,2.60
2022-12-28T19:59:18.744Z,2.40
2022-12-28T20:03:20.752Z,2.40
2022-12-28T20:07:22.797Z,2.60
2022-12-28T20:11:25.115Z,2.30
2022-12-28T20:15:26.929Z,2.40
2022-12-28T20:19:28.721Z,2.30
2022-12-28T20:23:30.857Z,2.30
2022-12-28T20:27:32.590Z,2.30
2022-12-28T20:31:34.406Z,2.30
2022-12-28T20:35:36.222Z,2.30
2022-12-28T20:39:38.174Z,2.30
2022-12-28T20:43:39.998Z,2.30
2022-12-28T20:47:41.933Z,2.20
2022-12-28T20:51:43.756Z,2.10
2022-12-28T20:55:45.509Z,2.10
2022-12-28T20:59:47.277Z,2.20
2022-12-28T21:03:49.524Z,2.20
2022-12-28T21:07:51.639Z,2.50
2022-12-28T21:11:53.479Z,2.60
2022-12-28T21:15:55.784Z,2.80
2022-12-28T21:19:57.608Z,2.80
2022-12-28T21:24:01.307Z,2.80
2022-12-28T21:28:03.204Z,2.80
2022-12-28T21:32:05.259Z,2.80
2022-12-28T21:36:19.021Z,2.80
2022-12-28T21:40:20.944Z,2.80
2022-12-28T21:44:24.413Z,2.90
2022-12-28T21:48:26.671Z,2.90
2022-12-28T21:52:36.534Z,2.90
2022-12-28T21:56:39.282Z,2.90
2022-12-28T22:00:59.773Z,3.00
2022-12-28T22:05:20.637Z,3.10
2022-12-28T22:09:41.050Z,3.20
2022-12-28T22:13:42.829Z,3.20
2022-12-28T22:17:44.693Z,3.20
2022-12-28T22:21:46.545Z,3.20
2022-12-28T22:25:49.440Z,3.30
2022-12-28T22:29:51.224Z,3.30
2022-12-28T22:33:55.316Z,3.30
2022-12-28T22:37:57.249Z,3.30
2022-12-28T22:41:59.053Z,3.30
2022-12-28T22:46:06.278Z,3.40
2022-12-28T22:50:10.806Z,3.50
2022-12-28T22:54:12.552Z,3.50
2022-12-28T22:58:14.308Z,3.60
2022-12-28T23:02:16.373Z,3.70
2022-12-28T23:06:19.717Z,3.80
2022-12-28T23:10:21.865Z,4.00
2022-12-28T23:14:43.625Z,4.00
2022-12-28T23:19:03.847Z,4.10
2022-12-28T23:23:24.403Z,3.90
2022-12-28T23:27:33.781Z,3.90
2022-12-28T23:31:35.594Z,4.00
2022-12-28T23:35:37.712Z,4.10
2022-12-28T23:39:39.466Z,4.20
2022-12-28T23:43:41.202Z,4.20
2022-12-28T23:47:44.127Z,4.20
2022-12-28T23:51:46.711Z,4.20
2022-12-28T23:55:48.462Z,4.20
2022-12-28T23:59:50.248Z,4.20
